sensor_id;sensor_type;location;lat;lon;timestamp;temperature;humidity
55213;DHT22;41083;52.932;6.674;2022-11-25T00:01:17;7.90;99.90
55213;DHT22;41083;52.932;6.674;2022-11-25T00:03:44;7.80;99.90
55213;DHT22;41083;52.932;6.674;2022-11-25T00:06:36;7.80;99.90
55213;DHT22;41083;52.932;6.674;2022-11-25T00:09:20;7.90;99.90
55213;DHT22;41083;52.932;6.674;2022-11-25T00:11:45;7.80;99.90
55213;DHT22;41083;52.932;6.674;2022-11-25T00:14:13;7.80;99.90
55213;DHT22;41083;52.932;6.674;2022-11-25T00:16:39;7.90;99.90
55213;DHT22;41083;52.932;6.674;2022-11-25T00:19:05;7.90;99.90
55213;DHT22;41083;52.932;6.674;2022-11-25T00:21:32;7.90;99.90
55213;DHT22;41083;52.932;6.674;2022-11-25T00:24:00;7.90;99.90
55213;DHT22;41083;52.932;6.674;2022-11-25T00:26:28;7.90;99.90
55213;DHT22;41083;52.932;6.674;2022-11-25T00:28:56;7.90;99.90
55213;DHT22;41083;52.932;6.674;2022-11-25T00:31:27;7.90;99.90
55213;DHT22;41083;52.932;6.674;2022-11-25T00:33:53;7.90;99.90
55213;DHT22;41083;52.932;6.674;2022-11-25T00:36:25;8.00;99.90
55213;DHT22;41083;52.932;6.674;2022-11-25T00:39:01;8.00;99.90
55213;DHT22;41083;52.932;6.674;2022-11-25T00:41:28;8.00;99.90
55213;DHT22;41083;52.932;6.674;2022-11-25T00:44:14;8.00;99.90
55213;DHT22;41083;52.932;6.674;2022-11-25T00:46:58;8.00;99.90
55213;DHT22;41083;52.932;6.674;2022-11-25T00:49:24;8.00;99.90
55213;DHT22;41083;52.932;6.674;2022-11-25T00:51:49;8.10;99.90
55213;DHT22;41083;52.932;6.674;2022-11-25T00:54:15;8.10;99.90
55213;DHT22;41083;52.932;6.674;2022-11-25T00:56:40;8.10;99.90
55213;DHT22;41083;52.932;6.674;2022-11-25T00:59:06;8.00;99.90
55213;DHT22;41083;52.932;6.674;2022-11-25T01:01:33;8.10;99.90
55213;DHT22;41083;52.932;6.674;2022-11-25T01:03:59;8.10;99.90
55213;DHT22;41083;52.932;6.674;2022-11-25T01:06:24;8.10;99.90
55213;DHT22;41083;52.932;6.674;2022-11-25T01:08:50;8.10;99.90
55213;DHT22;41083;52.932;6.674;2022-11-25T01:11:18;8.10;99.90
55213;DHT22;41083;52.932;6.674;2022-11-25T01:13:45;8.10;99.90
55213;DHT22;41083;52.932;6.674;2022-11-25T01:16:13;8.10;99.90
55213;DHT22;41083;52.932;6.674;2022-11-25T01:18:40;8.10;99.90
55213;DHT22;41083;52.932;6.674;2022-11-25T01:21:09;8.10;99.90
55213;DHT22;41083;52.932;6.674;2022-11-25T01:23:36;8.10;99.90
55213;DHT22;41083;52.932;6.674;2022-11-25T01:26:07;8.10;99.90
55213;DHT22;41083;52.932;6.674;2022-11-25T01:28:33;8.10;99.90
55213;DHT22;41083;52.932;6.674;2022-11-25T01:31:00;8.10;99.90
55213;DHT22;41083;52.932;6.674;2022-11-25T01:33:27;8.10;99.90
55213;DHT22;41083;52.932;6.674;2022-11-25T01:35:52;8.10;99.90
55213;DHT22;41083;52.932;6.674;2022-11-25T01:38:18;8.10;99.90
55213;DHT22;41083;52.932;6.674;2022-11-25T01:40:43;8.10;99.90
55213;DHT22;41083;52.932;6.674;2022-11-25T01:43:13;8.10;99.90
55213;DHT22;41083;52.932;6.674;2022-11-25T01:45:39;8.10;99.90
55213;DHT22;41083;52.932;6.674;2022-11-25T01:48:11;8.20;99.90
55213;DHT22;41083;52.932;6.674;2022-11-25T01:50:40;8.20;99.90
55213;DHT22;41083;52.932;6.674;2022-11-25T01:53:09;8.20;99.90
55213;DHT22;41083;52.932;6.674;2022-11-25T01:55:37;8.20;99.90
55213;DHT22;41083;52.932;6.674;2022-11-25T01:58:32;8.20;99.90
55213;DHT22;41083;52.932;6.674;2022-11-25T02:00:58;8.20;99.90
55213;DHT22;41083;52.932;6.674;2022-11-25T02:03:28;8.20;99.90
55213;DHT22;41083;52.932;6.674;2022-11-25T02:08:28;8.30;99.90
55213;DHT22;41083;52.932;6.674;2022-11-25T02:10:54;8.30;99.90
55213;DHT22;41083;52.932;6.674;2022-11-25T02:13:21;8.30;99.90
55213;DHT22;41083;52.932;6.674;2022-11-25T02:15:48;8.30;99.90
55213;DHT22;41083;52.932;6.674;2022-11-25T02:18:14;8.30;99.90
55213;DHT22;41083;52.932;6.674;2022-11-25T02:20:40;8.30;99.90
55213;DHT22;41083;52.932;6.674;2022-11-25T02:25:50;8.30;99.90
55213;DHT22;41083;52.932;6.674;2022-11-25T02:28:28;8.30;99.90
55213;DHT22;41083;52.932;6.674;2022-11-25T02:30:55;8.30;99.90
55213;DHT22;41083;52.932;6.674;2022-11-25T02:33:22;8.30;99.90
55213;DHT22;41083;52.932;6.674;2022-11-25T02:35:51;8.20;99.90
55213;DHT22;41083;52.932;6.674;2022-11-25T02:41:09;8.30;99.90
55213;DHT22;41083;52.932;6.674;2022-11-25T02:43:36;8.30;99.90
55213;DHT22;41083;52.932;6.674;2022-11-25T02:46:08;8.30;99.90
55213;DHT22;41083;52.932;6.674;2022-11-25T02:48:36;8.30;99.90
55213;DHT22;41083;52.932;6.674;2022-11-25T02:51:03;8.30;99.90
55213;DHT22;41083;52.932;6.674;2022-11-25T02:53:29;8.30;99.90
55213;DHT22;41083;52.932;6.674;2022-11-25T02:55:55;8.30;99.90
55213;DHT22;41083;52.932;6.674;2022-11-25T02:58:21;8.30;99.90
55213;DHT22;41083;52.932;6.674;2022-11-25T03:00:46;8.30;99.90
55213;DHT22;41083;52.932;6.674;2022-11-25T03:03:12;8.30;99.90
55213;DHT22;41083;52.932;6.674;2022-11-25T03:05:38;8.30;99.90
55213;DHT22;41083;52.932;6.674;2022-11-25T03:08:05;8.30;99.90
55213;DHT22;41083;52.932;6.674;2022-11-25T03:10:31;8.30;99.90
55213;DHT22;41083;52.932;6.674;2022-11-25T03:12:57;8.40;99.90
55213;DHT22;41083;52.932;6.674;2022-11-25T03:15:23;8.30;99.90
55213;DHT22;41083;52.932;6.674;2022-11-25T03:17:49;8.40;99.90
55213;DHT22;41083;52.932;6.674;2022-11-25T03:20:15;8.40;99.90
55213;DHT22;41083;52.932;6.674;2022-11-25T03:22:41;8.40;99.90
55213;DHT22;41083;52.932;6.674;2022-11-25T03:25:08;8.40;99.90
55213;DHT22;41083;52.932;6.674;2022-11-25T03:27:35;8.40;99.90
55213;DHT22;41083;52.932;6.674;2022-11-25T03:30:01;8.30;99.90
55213;DHT22;41083;52.932;6.674;2022-11-25T03:32:26;8.40;99.90
55213;DHT22;41083;52.932;6.674;2022-11-25T03:34:52;8.40;99.90
55213;DHT22;41083;52.932;6.674;2022-11-25T03:37:17;8.30;99.90
55213;DHT22;41083;52.932;6.674;2022-11-25T03:39:44;8.40;99.90
55213;DHT22;41083;52.932;6.674;2022-11-25T03:42:09;8.40;99.90
55213;DHT22;41083;52.932;6.674;2022-11-25T03:44:35;8.40;99.90
55213;DHT22;41083;52.932;6.674;2022-11-25T03:47:00;8.50;99.90
55213;DHT22;41083;52.932;6.674;2022-11-25T03:49:26;8.50;99.90
55213;DHT22;41083;52.932;6.674;2022-11-25T03:51:53;8.50;99.90
55213;DHT22;41083;52.932;6.674;2022-11-25T03:54:18;8.50;99.90
55213;DHT22;41083;52.932;6.674;2022-11-25T03:56:44;8.50;99.90
55213;DHT22;41083;52.932;6.674;2022-11-25T03:59:10;8.50;99.90
55213;DHT22;41083;52.932;6.674;2022-11-25T04:01:35;8.50;99.90
55213;DHT22;41083;52.932;6.674;2022-11-25T04:04:02;8.50;99.90
55213;DHT22;41083;52.932;6.674;2022-11-25T04:06:28;8.50;99.90
55213;DHT22;41083;52.932;6.674;2022-11-25T04:08:53;8.50;99.90
55213;DHT22;41083;52.932;6.674;2022-11-25T04:11:19;8.50;99.90
55213;DHT22;41083;52.932;6.674;2022-11-25T04:13:44;8.50;99.90
55213;DHT22;41083;52.932;6.674;2022-11-25T04:16:18;8.50;99.90
55213;DHT22;41083;52.932;6.674;2022-11-25T04:18:46;8.50;99.90
55213;DHT22;41083;52.932;6.674;2022-11-25T04:21:12;8.50;99.90
55213;DHT22;41083;52.932;6.674;2022-11-25T04:23:37;8.50;99.90
55213;DHT22;41083;52.932;6.674;2022-11-25T04:26:03;8.50;99.90
55213;DHT22;41083;52.932;6.674;2022-11-25T04:28:29;8.50;99.90
55213;DHT22;41083;52.932;6.674;2022-11-25T04:30:55;8.50;99.90
55213;DHT22;41083;52.932;6.674;2022-11-25T04:33:20;8.50;99.90
55213;DHT22;41083;52.932;6.674;2022-11-25T04:35:46;8.50;99.90
55213;DHT22;41083;52.932;6.674;2022-11-25T04:38:11;8.50;99.90
55213;DHT22;41083;52.932;6.674;2022-11-25T04:40:37;8.50;99.90
55213;DHT22;41083;52.932;6.674;2022-11-25T04:43:03;8.60;99.90
55213;DHT22;41083;52.932;6.674;2022-11-25T04:45:28;8.50;99.90
55213;DHT22;41083;52.932;6.674;2022-11-25T04:47:54;8.60;99.90
55213;DHT22;41083;52.932;6.674;2022-11-25T04:50:21;8.50;99.90
55213;DHT22;41083;52.932;6.674;2022-11-25T04:52:48;8.50;99.90
55213;DHT22;41083;52.932;6.674;2022-11-25T04:55:13;8.60;99.90
55213;DHT22;41083;52.932;6.674;2022-11-25T04:57:39;8.50;99.90
55213;DHT22;41083;52.932;6.674;2022-11-25T05:00:06;8.50;99.90
55213;DHT22;41083;52.932;6.674;2022-11-25T05:02:32;8.60;99.90
55213;DHT22;41083;52.932;6.674;2022-11-25T05:04:57;8.50;99.90
55213;DHT22;41083;52.932;6.674;2022-11-25T05:07:24;8.50;99.90
55213;DHT22;41083;52.932;6.674;2022-11-25T05:09:50;8.50;99.90
55213;DHT22;41083;52.932;6.674;2022-11-25T05:12:19;8.50;99.90
55213;DHT22;41083;52.932;6.674;2022-11-25T05:14:45;8.50;99.90
55213;DHT22;41083;52.932;6.674;2022-11-25T05:17:16;8.50;99.90
55213;DHT22;41083;52.932;6.674;2022-11-25T05:19:42;8.60;99.90
55213;DHT22;41083;52.932;6.674;2022-11-25T05:22:17;8.50;99.90
55213;DHT22;41083;52.932;6.674;2022-11-25T05:24:43;8.50;99.90
55213;DHT22;41083;52.932;6.674;2022-11-25T05:27:09;8.50;99.90
55213;DHT22;41083;52.932;6.674;2022-11-25T05:29:35;8.50;99.90
55213;DHT22;41083;52.932;6.674;2022-11-25T05:32:02;8.50;99.90
55213;DHT22;41083;52.932;6.674;2022-11-25T05:34:28;8.50;99.90
55213;DHT22;41083;52.932;6.674;2022-11-25T05:36:53;8.50;99.90
55213;DHT22;41083;52.932;6.674;2022-11-25T05:39:19;8.50;99.90
55213;DHT22;41083;52.932;6.674;2022-11-25T05:41:45;8.50;99.90
55213;DHT22;41083;52.932;6.674;2022-11-25T05:44:10;8.50;99.90
55213;DHT22;41083;52.932;6.674;2022-11-25T05:46:36;8.50;99.90
55213;DHT22;41083;52.932;6.674;2022-11-25T05:49:01;8.50;99.90
55213;DHT22;41083;52.932;6.674;2022-11-25T05:51:27;8.50;99.90
55213;DHT22;41083;52.932;6.674;2022-11-25T05:53:54;8.50;99.90
55213;DHT22;41083;52.932;6.674;2022-11-25T05:56:20;8.50;99.90
55213;DHT22;41083;52.932;6.674;2022-11-25T05:58:46;8.50;99.90
55213;DHT22;41083;52.932;6.674;2022-11-25T06:01:13;8.50;99.90
55213;DHT22;41083;52.932;6.674;2022-11-25T06:03:40;8.50;99.90
55213;DHT22;41083;52.932;6.674;2022-11-25T06:06:07;8.50;99.90
55213;DHT22;41083;52.932;6.674;2022-11-25T06:08:33;8.50;99.90
55213;DHT22;41083;52.932;6.674;2022-11-25T06:11:06;8.50;99.90
55213;DHT22;41083;52.932;6.674;2022-11-25T06:13:33;8.50;99.90
55213;DHT22;41083;52.932;6.674;2022-11-25T06:16:02;8.50;99.90
55213;DHT22;41083;52.932;6.674;2022-11-25T06:18:30;8.50;99.90
55213;DHT22;41083;52.932;6.674;2022-11-25T06:20:59;8.50;99.90
55213;DHT22;41083;52.932;6.674;2022-11-25T06:23:25;8.50;99.90
55213;DHT22;41083;52.932;6.674;2022-11-25T06:25:51;8.50;99.90
55213;DHT22;41083;52.932;6.674;2022-11-25T06:28:17;8.50;99.90
55213;DHT22;41083;52.932;6.674;2022-11-25T06:30:43;8.50;99.90
55213;DHT22;41083;52.932;6.674;2022-11-25T06:33:09;8.50;99.90
55213;DHT22;41083;52.932;6.674;2022-11-25T06:35:35;8.50;99.90
55213;DHT22;41083;52.932;6.674;2022-11-25T06:38:01;8.50;99.90
55213;DHT22;41083;52.932;6.674;2022-11-25T06:40:27;8.50;99.90
55213;DHT22;41083;52.932;6.674;2022-11-25T06:42:52;8.60;99.90
55213;DHT22;41083;52.932;6.674;2022-11-25T06:45:18;8.50;99.90
55213;DHT22;41083;52.932;6.674;2022-11-25T06:47:43;8.50;99.90
55213;DHT22;41083;52.932;6.674;2022-11-25T06:50:09;8.50;99.90
55213;DHT22;41083;52.932;6.674;2022-11-25T06:52:35;8.50;99.90
55213;DHT22;41083;52.932;6.674;2022-11-25T06:55:02;8.50;99.90
55213;DHT22;41083;52.932;6.674;2022-11-25T06:57:28;8.50;99.90
55213;DHT22;41083;52.932;6.674;2022-11-25T06:59:53;8.50;99.90
55213;DHT22;41083;52.932;6.674;2022-11-25T07:02:19;8.50;99.90
55213;DHT22;41083;52.932;6.674;2022-11-25T07:04:45;8.50;99.90
55213;DHT22;41083;52.932;6.674;2022-11-25T07:07:10;8.50;99.90
55213;DHT22;41083;52.932;6.674;2022-11-25T07:09:36;8.60;99.90
55213;DHT22;41083;52.932;6.674;2022-11-25T07:12:02;8.60;99.90
55213;DHT22;41083;52.932;6.674;2022-11-25T07:14:27;8.50;99.90
55213;DHT22;41083;52.932;6.674;2022-11-25T07:16:53;8.60;99.90
55213;DHT22;41083;52.932;6.674;2022-11-25T07:19:19;8.50;99.90
55213;DHT22;41083;52.932;6.674;2022-11-25T07:21:45;8.60;99.90
55213;DHT22;41083;52.932;6.674;2022-11-25T07:24:12;8.50;99.90
55213;DHT22;41083;52.932;6.674;2022-11-25T07:26:40;8.60;99.90
55213;DHT22;41083;52.932;6.674;2022-11-25T07:29:08;8.50;99.90
55213;DHT22;41083;52.932;6.674;2022-11-25T07:31:37;8.50;99.90
55213;DHT22;41083;52.932;6.674;2022-11-25T07:34:11;8.50;99.90
55213;DHT22;41083;52.932;6.674;2022-11-25T07:36:37;8.50;99.90
55213;DHT22;41083;52.932;6.674;2022-11-25T07:39:07;8.50;99.90
55213;DHT22;41083;52.932;6.674;2022-11-25T07:41:33;8.40;99.90
55213;DHT22;41083;52.932;6.674;2022-11-25T07:44:02;8.40;99.90
55213;DHT22;41083;52.932;6.674;2022-11-25T07:46:36;8.40;99.90
55213;DHT22;41083;52.932;6.674;2022-11-25T07:49:05;8.30;99.90
55213;DHT22;41083;52.932;6.674;2022-11-25T07:51:56;8.30;99.90
55213;DHT22;41083;52.932;6.674;2022-11-25T07:54:22;8.30;99.90
55213;DHT22;41083;52.932;6.674;2022-11-25T07:56:48;8.30;99.90
55213;DHT22;41083;52.932;6.674;2022-11-25T07:59:17;8.20;99.90
55213;DHT22;41083;52.932;6.674;2022-11-25T08:01:43;8.20;99.90
55213;DHT22;41083;52.932;6.674;2022-11-25T08:04:11;8.20;99.90
55213;DHT22;41083;52.932;6.674;2022-11-25T08:06:39;8.20;99.90
55213;DHT22;41083;52.932;6.674;2022-11-25T08:09:07;8.20;99.90
55213;DHT22;41083;52.932;6.674;2022-11-25T08:11:33;8.20;99.90
55213;DHT22;41083;52.932;6.674;2022-11-25T08:13:59;8.20;99.90
55213;DHT22;41083;52.932;6.674;2022-11-25T08:16:26;8.20;99.90
55213;DHT22;41083;52.932;6.674;2022-11-25T08:18:53;8.20;99.90
55213;DHT22;41083;52.932;6.674;2022-11-25T08:21:19;8.20;99.90
55213;DHT22;41083;52.932;6.674;2022-11-25T08:23:46;8.20;99.90
55213;DHT22;41083;52.932;6.674;2022-11-25T08:26:27;8.20;99.90
55213;DHT22;41083;52.932;6.674;2022-11-25T08:28:57;8.20;99.90
55213;DHT22;41083;52.932;6.674;2022-11-25T08:31:26;8.20;99.90
55213;DHT22;41083;52.932;6.674;2022-11-25T08:33:52;8.30;99.90
55213;DHT22;41083;52.932;6.674;2022-11-25T08:36:19;8.20;99.90
55213;DHT22;41083;52.932;6.674;2022-11-25T08:38:47;8.40;99.90
55213;DHT22;41083;52.932;6.674;2022-11-25T08:41:19;8.30;99.90
55213;DHT22;41083;52.932;6.674;2022-11-25T08:43:45;8.30;99.90
55213;DHT22;41083;52.932;6.674;2022-11-25T08:46:14;8.30;99.90
55213;DHT22;41083;52.932;6.674;2022-11-25T08:48:40;8.40;99.90
55213;DHT22;41083;52.932;6.674;2022-11-25T08:51:09;8.40;99.90
55213;DHT22;41083;52.932;6.674;2022-11-25T08:53:36;8.40;99.90
55213;DHT22;41083;52.932;6.674;2022-11-25T08:56:02;8.40;99.90
55213;DHT22;41083;52.932;6.674;2022-11-25T08:58:27;8.40;99.90
55213;DHT22;41083;52.932;6.674;2022-11-25T09:00:53;8.40;99.90
55213;DHT22;41083;52.932;6.674;2022-11-25T09:03:18;8.50;99.90
55213;DHT22;41083;52.932;6.674;2022-11-25T09:05:44;8.50;99.90
55213;DHT22;41083;52.932;6.674;2022-11-25T09:08:10;8.50;99.90
55213;DHT22;41083;52.932;6.674;2022-11-25T09:10:37;8.60;99.90
55213;DHT22;41083;52.932;6.674;2022-11-25T09:13:03;8.50;99.90
55213;DHT22;41083;52.932;6.674;2022-11-25T09:15:29;8.50;99.90
55213;DHT22;41083;52.932;6.674;2022-11-25T09:17:59;8.60;99.90
55213;DHT22;41083;52.932;6.674;2022-11-25T09:20:25;8.60;99.90
55213;DHT22;41083;52.932;6.674;2022-11-25T09:22:51;8.60;99.90
55213;DHT22;41083;52.932;6.674;2022-11-25T09:25:17;8.60;99.90
55213;DHT22;41083;52.932;6.674;2022-11-25T09:27:42;8.60;99.90
55213;DHT22;41083;52.932;6.674;2022-11-25T09:30:09;8.60;99.90
55213;DHT22;41083;52.932;6.674;2022-11-25T09:32:35;8.70;99.90
55213;DHT22;41083;52.932;6.674;2022-11-25T09:35:00;8.70;99.90
55213;DHT22;41083;52.932;6.674;2022-11-25T09:37:26;8.70;99.90
55213;DHT22;41083;52.932;6.674;2022-11-25T09:39:52;8.70;99.90
55213;DHT22;41083;52.932;6.674;2022-11-25T09:42:45;8.70;99.90
55213;DHT22;41083;52.932;6.674;2022-11-25T09:45:55;8.80;99.90
55213;DHT22;41083;52.932;6.674;2022-11-25T09:48:59;8.80;99.90
55213;DHT22;41083;52.932;6.674;2022-11-25T09:51:54;8.80;99.90
55213;DHT22;41083;52.932;6.674;2022-11-25T09:54:36;8.90;99.90
55213;DHT22;41083;52.932;6.674;2022-11-25T09:57:18;8.90;99.90
55213;DHT22;41083;52.932;6.674;2022-11-25T09:59:57;9.00;99.90
55213;DHT22;41083;52.932;6.674;2022-11-25T10:02:50;9.00;99.90
55213;DHT22;41083;52.932;6.674;2022-11-25T10:05:20;9.00;99.90
55213;DHT22;41083;52.932;6.674;2022-11-25T10:07:51;9.00;99.90
55213;DHT22;41083;52.932;6.674;2022-11-25T10:10:23;9.00;99.90
55213;DHT22;41083;52.932;6.674;2022-11-25T10:12:50;9.10;99.90
55213;DHT22;41083;52.932;6.674;2022-11-25T10:15:31;9.10;99.90
55213;DHT22;41083;52.932;6.674;2022-11-25T10:18:27;9.10;99.90
55213;DHT22;41083;52.932;6.674;2022-11-25T10:20:54;9.10;99.90
55213;DHT22;41083;52.932;6.674;2022-11-25T10:23:24;9.10;99.90
55213;DHT22;41083;52.932;6.674;2022-11-25T10:26:00;9.10;99.90
55213;DHT22;41083;52.932;6.674;2022-11-25T10:28:32;9.20;99.90
55213;DHT22;41083;52.932;6.674;2022-11-25T10:31:15;9.30;99.90
55213;DHT22;41083;52.932;6.674;2022-11-25T10:33:48;9.20;99.90
55213;DHT22;41083;52.932;6.674;2022-11-25T10:36:20;9.30;99.90
55213;DHT22;41083;52.932;6.674;2022-11-25T10:39:12;9.30;99.90
55213;DHT22;41083;52.932;6.674;2022-11-25T10:41:51;9.30;99.90
55213;DHT22;41083;52.932;6.674;2022-11-25T10:44:26;9.30;99.90
55213;DHT22;41083;52.932;6.674;2022-11-25T10:49:29;9.30;99.90
55213;DHT22;41083;52.932;6.674;2022-11-25T10:52:00;9.40;99.90
55213;DHT22;41083;52.932;6.674;2022-11-25T10:54:27;9.40;99.90
55213;DHT22;41083;52.932;6.674;2022-11-25T10:56:58;9.40;99.90
55213;DHT22;41083;52.932;6.674;2022-11-25T10:59:30;9.40;99.90
55213;DHT22;41083;52.932;6.674;2022-11-25T11:02:17;9.40;99.90
55213;DHT22;41083;52.932;6.674;2022-11-25T11:04:56;9.50;99.90
55213;DHT22;41083;52.932;6.674;2022-11-25T11:07:24;9.50;99.90
55213;DHT22;41083;52.932;6.674;2022-11-25T11:09:50;9.50;99.90
55213;DHT22;41083;52.932;6.674;2022-11-25T11:12:24;9.60;99.90
55213;DHT22;41083;52.932;6.674;2022-11-25T11:14:51;9.60;99.90
55213;DHT22;41083;52.932;6.674;2022-11-25T11:17:30;9.60;99.90
55213;DHT22;41083;52.932;6.674;2022-11-25T11:20:01;9.60;99.90
55213;DHT22;41083;52.932;6.674;2022-11-25T11:22:28;9.70;99.90
55213;DHT22;41083;52.932;6.674;2022-11-25T11:27:44;9.70;99.90
55213;DHT22;41083;52.932;6.674;2022-11-25T11:30:20;9.80;99.90
55213;DHT22;41083;52.932;6.674;2022-11-25T11:33:50;9.80;99.90
55213;DHT22;41083;52.932;6.674;2022-11-25T11:35:52;9.80;99.90
55213;DHT22;41083;52.932;6.674;2022-11-25T11:38:42;9.90;99.90
55213;DHT22;41083;52.932;6.674;2022-11-25T11:44:06;9.90;99.90
55213;DHT22;41083;52.932;6.674;2022-11-25T11:46:58;9.90;99.90
55213;DHT22;41083;52.932;6.674;2022-11-25T11:49:49;9.90;99.90
55213;DHT22;41083;52.932;6.674;2022-11-25T11:55:31;9.80;99.90
55213;DHT22;41083;52.932;6.674;2022-11-25T12:01:16;9.80;99.90
55213;DHT22;41083;52.932;6.674;2022-11-25T12:04:25;9.90;99.90
55213;DHT22;41083;52.932;6.674;2022-11-25T12:09:37;9.90;99.90
55213;DHT22;41083;52.932;6.674;2022-11-25T12:12:13;10.00;99.90
55213;DHT22;41083;52.932;6.674;2022-11-25T12:14:50;9.90;99.90
55213;DHT22;41083;52.932;6.674;2022-11-25T12:17:30;10.00;99.90
55213;DHT22;41083;52.932;6.674;2022-11-25T12:20:25;10.00;99.90
55213;DHT22;41083;52.932;6.674;2022-11-25T12:23:03;10.00;99.90
55213;DHT22;41083;52.932;6.674;2022-11-25T12:25:35;10.10;99.90
55213;DHT22;41083;52.932;6.674;2022-11-25T12:28:14;10.10;99.90
55213;DHT22;41083;52.932;6.674;2022-11-25T12:31:17;10.10;99.90
55213;DHT22;41083;52.932;6.674;2022-11-25T12:33:59;10.20;99.90
55213;DHT22;41083;52.932;6.674;2022-11-25T12:36:33;10.20;99.90
55213;DHT22;41083;52.932;6.674;2022-11-25T12:42:02;10.20;99.90
55213;DHT22;41083;52.932;6.674;2022-11-25T12:45:06;10.30;99.90
55213;DHT22;41083;52.932;6.674;2022-11-25T12:47:33;10.20;99.90
55213;DHT22;41083;52.932;6.674;2022-11-25T12:49:59;10.20;99.90
55213;DHT22;41083;52.932;6.674;2022-11-25T12:55:17;10.10;99.90
55213;DHT22;41083;52.932;6.674;2022-11-25T13:00:22;10.10;99.90
55213;DHT22;41083;52.932;6.674;2022-11-25T13:05:56;10.20;99.90
55213;DHT22;41083;52.932;6.674;2022-11-25T13:08:38;10.20;99.90
55213;DHT22;41083;52.932;6.674;2022-11-25T13:11:45;10.20;99.90
55213;DHT22;41083;52.932;6.674;2022-11-25T13:17:07;10.20;99.90
55213;DHT22;41083;52.932;6.674;2022-11-25T13:19:34;10.20;99.90
55213;DHT22;41083;52.932;6.674;2022-11-25T13:22:22;10.20;99.90
55213;DHT22;41083;52.932;6.674;2022-11-25T13:24:51;10.20;99.90
55213;DHT22;41083;52.932;6.674;2022-11-25T13:30:03;10.20;99.90
55213;DHT22;41083;52.932;6.674;2022-11-25T13:32:32;10.20;99.90
55213;DHT22;41083;52.932;6.674;2022-11-25T13:37:45;10.20;99.90
55213;DHT22;41083;52.932;6.674;2022-11-25T13:42:55;10.10;99.90
55213;DHT22;41083;52.932;6.674;2022-11-25T13:45:41;10.10;99.90
55213;DHT22;41083;52.932;6.674;2022-11-25T13:51:16;10.10;99.90
55213;DHT22;41083;52.932;6.674;2022-11-25T13:53:53;10.20;99.90
55213;DHT22;41083;52.932;6.674;2022-11-25T13:59:18;10.20;99.90
55213;DHT22;41083;52.932;6.674;2022-11-25T14:04:12;10.30;99.90
55213;DHT22;41083;52.932;6.674;2022-11-25T14:18:41;10.30;99.90
55213;DHT22;41083;52.932;6.674;2022-11-25T14:21:59;10.30;99.90
55213;DHT22;41083;52.932;6.674;2022-11-25T14:24:29;10.20;99.90
55213;DHT22;41083;52.932;6.674;2022-11-25T14:26:59;10.20;99.90
55213;DHT22;41083;52.932;6.674;2022-11-25T14:32:04;10.20;99.90
55213;DHT22;41083;52.932;6.674;2022-11-25T14:34:38;10.10;99.90
55213;DHT22;41083;52.932;6.674;2022-11-25T14:37:17;10.10;99.90
55213;DHT22;41083;52.932;6.674;2022-11-25T14:39:51;10.10;99.90
55213;DHT22;41083;52.932;6.674;2022-11-25T14:42:22;10.00;99.90
55213;DHT22;41083;52.932;6.674;2022-11-25T14:44:50;10.00;99.90
55213;DHT22;41083;52.932;6.674;2022-11-25T14:47:21;10.00;99.90
55213;DHT22;41083;52.932;6.674;2022-11-25T14:49:51;10.00;99.90
55213;DHT22;41083;52.932;6.674;2022-11-25T14:52:26;10.00;99.90
55213;DHT22;41083;52.932;6.674;2022-11-25T14:54:54;10.00;99.90
55213;DHT22;41083;52.932;6.674;2022-11-25T14:57:23;10.00;99.90
55213;DHT22;41083;52.932;6.674;2022-11-25T14:59:50;10.00;99.90
55213;DHT22;41083;52.932;6.674;2022-11-25T15:02:28;10.00;99.90
55213;DHT22;41083;52.932;6.674;2022-11-25T15:07:35;10.00;99.90
55213;DHT22;41083;52.932;6.674;2022-11-25T15:10:05;10.00;99.90
55213;DHT22;41083;52.932;6.674;2022-11-25T15:12:32;10.00;99.90
55213;DHT22;41083;52.932;6.674;2022-11-25T15:14:58;10.00;99.90
55213;DHT22;41083;52.932;6.674;2022-11-25T15:17:32;10.00;99.90
55213;DHT22;41083;52.932;6.674;2022-11-25T15:20:10;9.90;99.90
55213;DHT22;41083;52.932;6.674;2022-11-25T15:22:36;9.90;99.90
55213;DHT22;41083;52.932;6.674;2022-11-25T15:25:08;9.90;99.90
55213;DHT22;41083;52.932;6.674;2022-11-25T15:27:43;9.80;99.90
55213;DHT22;41083;52.932;6.674;2022-11-25T15:30:25;9.80;99.90
55213;DHT22;41083;52.932;6.674;2022-11-25T15:32:51;9.80;99.90
55213;DHT22;41083;52.932;6.674;2022-11-25T15:35:21;9.70;99.90
55213;DHT22;41083;52.932;6.674;2022-11-25T15:37:48;9.70;99.90
55213;DHT22;41083;52.932;6.674;2022-11-25T15:40:33;9.70;99.90
55213;DHT22;41083;52.932;6.674;2022-11-25T15:43:04;9.60;99.90
55213;DHT22;41083;52.932;6.674;2022-11-25T15:45:43;9.60;99.90
55213;DHT22;41083;52.932;6.674;2022-11-25T15:48:33;9.50;99.90
55213;DHT22;41083;52.932;6.674;2022-11-25T15:51:04;9.50;99.90
55213;DHT22;41083;52.932;6.674;2022-11-25T15:53:31;9.50;99.90
55213;DHT22;41083;52.932;6.674;2022-11-25T15:56:02;9.40;99.90
55213;DHT22;41083;52.932;6.674;2022-11-25T15:58:28;9.40;99.90
55213;DHT22;41083;52.932;6.674;2022-11-25T16:01:21;9.40;99.90
55213;DHT22;41083;52.932;6.674;2022-11-25T16:03:48;9.40;99.90
55213;DHT22;41083;52.932;6.674;2022-11-25T16:06:22;9.30;99.90
55213;DHT22;41083;52.932;6.674;2022-11-25T16:11:19;9.30;99.90
55213;DHT22;41083;52.932;6.674;2022-11-25T16:13:46;9.20;99.90
55213;DHT22;41083;52.932;6.674;2022-11-25T16:16:16;9.20;99.90
55213;DHT22;41083;52.932;6.674;2022-11-25T16:21:35;9.20;99.90
55213;DHT22;41083;52.932;6.674;2022-11-25T16:26:35;9.10;99.90
55213;DHT22;41083;52.932;6.674;2022-11-25T16:29:19;9.10;99.90
55213;DHT22;41083;52.932;6.674;2022-11-25T16:31:46;9.10;99.90
55213;DHT22;41083;52.932;6.674;2022-11-25T16:34:16;9.00;99.90
55213;DHT22;41083;52.932;6.674;2022-11-25T16:36:42;9.10;99.90
55213;DHT22;41083;52.932;6.674;2022-11-25T16:39:09;9.00;99.90
55213;DHT22;41083;52.932;6.674;2022-11-25T16:41:35;9.00;99.90
55213;DHT22;41083;52.932;6.674;2022-11-25T16:44:04;9.00;99.90
55213;DHT22;41083;52.932;6.674;2022-11-25T16:46:29;8.90;99.90
55213;DHT22;41083;52.932;6.674;2022-11-25T16:48:55;8.90;99.90
55213;DHT22;41083;52.932;6.674;2022-11-25T16:51:22;8.90;99.90
55213;DHT22;41083;52.932;6.674;2022-11-25T16:53:49;8.80;99.90
55213;DHT22;41083;52.932;6.674;2022-11-25T16:56:26;8.80;99.90
55213;DHT22;41083;52.932;6.674;2022-11-25T16:58:52;8.80;99.90
55213;DHT22;41083;52.932;6.674;2022-11-25T17:01:21;8.80;99.90
55213;DHT22;41083;52.932;6.674;2022-11-25T17:03:47;8.80;99.90
55213;DHT22;41083;52.932;6.674;2022-11-25T17:06:16;8.80;99.90
55213;DHT22;41083;52.932;6.674;2022-11-25T17:08:43;8.80;99.90
55213;DHT22;41083;52.932;6.674;2022-11-25T17:11:16;8.80;99.90
55213;DHT22;41083;52.932;6.674;2022-11-25T17:13:44;8.70;99.90
55213;DHT22;41083;52.932;6.674;2022-11-25T17:16:16;8.70;99.90
55213;DHT22;41083;52.932;6.674;2022-11-25T17:18:43;8.70;99.90
55213;DHT22;41083;52.932;6.674;2022-11-25T17:21:13;8.70;99.90
55213;DHT22;41083;52.932;6.674;2022-11-25T17:23:40;8.60;99.90
55213;DHT22;41083;52.932;6.674;2022-11-25T17:26:09;8.60;99.90